sensor_id;sensor_type;location;lat;lon;timestamp;temperature;humidity
36002;DHT22;22070;50.922;5.430;2023-02-01T00:01:56;7.10;99.90
36002;DHT22;22070;50.922;5.430;2023-02-01T00:04:22;7.10;99.90
36002;DHT22;22070;50.922;5.430;2023-02-01T00:06:47;7.20;99.90
36002;DHT22;22070;50.922;5.430;2023-02-01T00:09:13;7.20;99.90
36002;DHT22;22070;50.922;5.430;2023-02-01T00:11:39;7.10;99.90
36002;DHT22;22070;50.922;5.430;2023-02-01T00:14:05;7.10;99.90
36002;DHT22;22070;50.922;5.430;2023-02-01T00:16:31;7.20;99.90
36002;DHT22;22070;50.922;5.430;2023-02-01T00:19:00;7.20;99.90
36002;DHT22;22070;50.922;5.430;2023-02-01T00:21:26;7.20;99.90
36002;DHT22;22070;50.922;5.430;2023-02-01T00:23:52;7.20;99.90
36002;DHT22;22070;50.922;5.430;2023-02-01T00:26:22;7.10;99.90
36002;DHT22;22070;50.922;5.430;2023-02-01T00:28:50;7.20;99.90
36002;DHT22;22070;50.922;5.430;2023-02-01T00:31:15;7.20;99.90
36002;DHT22;22070;50.922;5.430;2023-02-01T00:33:41;7.20;99.90
36002;DHT22;22070;50.922;5.430;2023-02-01T00:36:08;7.20;99.90
36002;DHT22;22070;50.922;5.430;2023-02-01T00:38:37;7.20;99.90
36002;DHT22;22070;50.922;5.430;2023-02-01T00:41:04;7.10;99.90
36002;DHT22;22070;50.922;5.430;2023-02-01T00:43:31;7.10;99.90
36002;DHT22;22070;50.922;5.430;2023-02-01T00:45:57;7.20;99.90
36002;DHT22;22070;50.922;5.430;2023-02-01T00:48:24;7.10;99.90
36002;DHT22;22070;50.922;5.430;2023-02-01T00:50:49;7.10;99.90
36002;DHT22;22070;50.922;5.430;2023-02-01T00:53:15;7.10;99.90
36002;DHT22;22070;50.922;5.430;2023-02-01T00:55:40;7.10;99.90
36002;DHT22;22070;50.922;5.430;2023-02-01T00:58:09;7.10;99.90
36002;DHT22;22070;50.922;5.430;2023-02-01T01:00:35;7.10;99.90
36002;DHT22;22070;50.922;5.430;2023-02-01T01:03:04;7.10;99.90
36002;DHT22;22070;50.922;5.430;2023-02-01T01:05:44;7.10;99.90
36002;DHT22;22070;50.922;5.430;2023-02-01T01:08:10;7.10;99.90
36002;DHT22;22070;50.922;5.430;2023-02-01T01:10:35;7.10;99.90
36002;DHT22;22070;50.922;5.430;2023-02-01T01:13:01;7.10;99.90
36002;DHT22;22070;50.922;5.430;2023-02-01T01:15:27;7.20;99.90
36002;DHT22;22070;50.922;5.430;2023-02-01T01:17:52;7.20;99.90
36002;DHT22;22070;50.922;5.430;2023-02-01T01:20:18;7.20;99.90
36002;DHT22;22070;50.922;5.430;2023-02-01T01:22:47;7.20;99.90
36002;DHT22;22070;50.922;5.430;2023-02-01T01:25:13;7.30;99.90
36002;DHT22;22070;50.922;5.430;2023-02-01T01:27:39;7.30;99.90
36002;DHT22;22070;50.922;5.430;2023-02-01T01:30:05;7.30;99.90
36002;DHT22;22070;50.922;5.430;2023-02-01T01:32:31;7.40;99.90
36002;DHT22;22070;50.922;5.430;2023-02-01T01:34:57;7.40;99.90
36002;DHT22;22070;50.922;5.430;2023-02-01T01:37:22;7.30;99.90
36002;DHT22;22070;50.922;5.430;2023-02-01T01:39:48;7.30;99.90
36002;DHT22;22070;50.922;5.430;2023-02-01T01:42:14;7.40;99.90
36002;DHT22;22070;50.922;5.430;2023-02-01T01:47:25;7.40;99.90
36002;DHT22;22070;50.922;5.430;2023-02-01T01:49:51;7.30;99.90
36002;DHT22;22070;50.922;5.430;2023-02-01T01:52:18;7.30;99.90
36002;DHT22;22070;50.922;5.430;2023-02-01T01:54:47;7.30;99.90
36002;DHT22;22070;50.922;5.430;2023-02-01T01:57:27;7.40;99.90
36002;DHT22;22070;50.922;5.430;2023-02-01T02:00:08;7.30;99.90
36002;DHT22;22070;50.922;5.430;2023-02-01T02:02:36;7.30;99.90
36002;DHT22;22070;50.922;5.430;2023-02-01T02:05:03;7.20;99.90
36002;DHT22;22070;50.922;5.430;2023-02-01T02:07:32;7.20;99.90
36002;DHT22;22070;50.922;5.430;2023-02-01T02:10:00;7.20;99.90
36002;DHT22;22070;50.922;5.430;2023-02-01T02:12:27;7.20;99.90
36002;DHT22;22070;50.922;5.430;2023-02-01T02:14:53;7.30;99.90
36002;DHT22;22070;50.922;5.430;2023-02-01T02:17:30;7.40;99.90
36002;DHT22;22070;50.922;5.430;2023-02-01T02:31:19;7.40;99.90
36002;DHT22;22070;50.922;5.430;2023-02-01T02:34:04;7.30;99.90
36002;DHT22;22070;50.922;5.430;2023-02-01T02:36:59;7.30;99.90
36002;DHT22;22070;50.922;5.430;2023-02-01T02:45:23;7.30;99.90
36002;DHT22;22070;50.922;5.430;2023-02-01T02:48:18;7.30;99.90
36002;DHT22;22070;50.922;5.430;2023-02-01T02:51:04;7.30;99.90
36002;DHT22;22070;50.922;5.430;2023-02-01T02:54:13;7.40;99.90
36002;DHT22;22070;50.922;5.430;2023-02-01T02:56:59;7.40;99.90
36002;DHT22;22070;50.922;5.430;2023-02-01T02:59:47;7.40;99.90
36002;DHT22;22070;50.922;5.430;2023-02-01T03:02:37;7.40;99.90
36002;DHT22;22070;50.922;5.430;2023-02-01T03:05:21;7.40;99.90
36002;DHT22;22070;50.922;5.430;2023-02-01T03:10:37;7.40;99.90
36002;DHT22;22070;50.922;5.430;2023-02-01T03:13:55;7.30;99.90
36002;DHT22;22070;50.922;5.430;2023-02-01T03:16:06;7.30;99.90
36002;DHT22;22070;50.922;5.430;2023-02-01T03:21:13;7.30;99.90
36002;DHT22;22070;50.922;5.430;2023-02-01T03:23:42;7.20;99.90
36002;DHT22;22070;50.922;5.430;2023-02-01T03:26:11;7.20;99.90
36002;DHT22;22070;50.922;5.430;2023-02-01T03:28:50;7.20;99.90
36002;DHT22;22070;50.922;5.430;2023-02-01T03:31:18;7.20;99.90
36002;DHT22;22070;50.922;5.430;2023-02-01T03:33:43;7.20;99.90
36002;DHT22;22070;50.922;5.430;2023-02-01T03:36:26;7.20;99.90
36002;DHT22;22070;50.922;5.430;2023-02-01T03:41:53;7.00;99.90
36002;DHT22;22070;50.922;5.430;2023-02-01T03:45:00;7.00;99.90
36002;DHT22;22070;50.922;5.430;2023-02-01T03:47:21;7.00;99.90
36002;DHT22;22070;50.922;5.430;2023-02-01T03:49:54;7.00;99.90
36002;DHT22;22070;50.922;5.430;2023-02-01T03:52:28;7.00;99.90
36002;DHT22;22070;50.922;5.430;2023-02-01T03:54:55;6.90;99.90
36002;DHT22;22070;50.922;5.430;2023-02-01T03:57:27;6.80;99.90
36002;DHT22;22070;50.922;5.430;2023-02-01T04:00:06;6.80;99.90
36002;DHT22;22070;50.922;5.430;2023-02-01T04:02:33;6.90;99.90
36002;DHT22;22070;50.922;5.430;2023-02-01T04:04:59;6.80;99.90
36002;DHT22;22070;50.922;5.430;2023-02-01T04:07:25;6.90;99.90
36002;DHT22;22070;50.922;5.430;2023-02-01T04:09:51;6.80;99.90
36002;DHT22;22070;50.922;5.430;2023-02-01T04:12:16;6.70;99.90
36002;DHT22;22070;50.922;5.430;2023-02-01T04:14:42;6.80;99.90
36002;DHT22;22070;50.922;5.430;2023-02-01T04:17:08;6.70;99.90
36002;DHT22;22070;50.922;5.430;2023-02-01T04:19:33;6.70;99.90
36002;DHT22;22070;50.922;5.430;2023-02-01T04:21:59;6.70;99.90
36002;DHT22;22070;50.922;5.430;2023-02-01T04:24:25;6.70;99.90
36002;DHT22;22070;50.922;5.430;2023-02-01T04:26:50;6.60;99.90
36002;DHT22;22070;50.922;5.430;2023-02-01T04:29:16;6.70;99.90
36002;DHT22;22070;50.922;5.430;2023-02-01T04:31:41;6.60;99.90
36002;DHT22;22070;50.922;5.430;2023-02-01T04:34:07;6.50;99.90
36002;DHT22;22070;50.922;5.430;2023-02-01T04:36:33;6.50;99.90
36002;DHT22;22070;50.922;5.430;2023-02-01T04:38:58;6.50;99.90
36002;DHT22;22070;50.922;5.430;2023-02-01T04:41:24;6.40;99.90
36002;DHT22;22070;50.922;5.430;2023-02-01T04:43:50;6.50;99.90
36002;DHT22;22070;50.922;5.430;2023-02-01T04:46:17;6.50;99.90
36002;DHT22;22070;50.922;5.430;2023-02-01T04:48:43;6.50;99.90
36002;DHT22;22070;50.922;5.430;2023-02-01T04:51:09;6.50;99.90
36002;DHT22;22070;50.922;5.430;2023-02-01T04:53:35;6.40;99.90
36002;DHT22;22070;50.922;5.430;2023-02-01T04:56:01;6.50;99.90
36002;DHT22;22070;50.922;5.430;2023-02-01T04:58:26;6.40;99.90
36002;DHT22;22070;50.922;5.430;2023-02-01T05:00:52;6.40;99.90
36002;DHT22;22070;50.922;5.430;2023-02-01T05:03:18;6.40;99.90
36002;DHT22;22070;50.922;5.430;2023-02-01T05:05:44;6.40;99.90
36002;DHT22;22070;50.922;5.430;2023-02-01T05:08:09;6.30;99.90
36002;DHT22;22070;50.922;5.430;2023-02-01T05:10:35;6.30;99.90
36002;DHT22;22070;50.922;5.430;2023-02-01T05:13:01;6.30;99.90
36002;DHT22;22070;50.922;5.430;2023-02-01T05:15:45;6.30;99.90
36002;DHT22;22070;50.922;5.430;2023-02-01T05:18:12;6.30;99.90
36002;DHT22;22070;50.922;5.430;2023-02-01T05:20:37;6.40;99.90
36002;DHT22;22070;50.922;5.430;2023-02-01T05:23:03;6.30;99.90
36002;DHT22;22070;50.922;5.430;2023-02-01T05:25:29;6.40;99.90
36002;DHT22;22070;50.922;5.430;2023-02-01T05:27:54;6.40;99.90
36002;DHT22;22070;50.922;5.430;2023-02-01T05:30:20;6.40;99.90
36002;DHT22;22070;50.922;5.430;2023-02-01T05:32:50;6.30;99.90
36002;DHT22;22070;50.922;5.430;2023-02-01T05:35:15;6.30;99.90
36002;DHT22;22070;50.922;5.430;2023-02-01T05:37:41;6.30;99.90
36002;DHT22;22070;50.922;5.430;2023-02-01T05:40:07;6.30;99.90
36002;DHT22;22070;50.922;5.430;2023-02-01T05:42:33;6.30;99.90
36002;DHT22;22070;50.922;5.430;2023-02-01T05:44:59;6.30;99.90
36002;DHT22;22070;50.922;5.430;2023-02-01T05:47:24;6.30;99.90
36002;DHT22;22070;50.922;5.430;2023-02-01T05:49:50;6.30;99.90
36002;DHT22;22070;50.922;5.430;2023-02-01T05:52:16;6.10;99.90
36002;DHT22;22070;50.922;5.430;2023-02-01T05:54:45;6.10;99.90
36002;DHT22;22070;50.922;5.430;2023-02-01T05:57:13;6.10;99.90
36002;DHT22;22070;50.922;5.430;2023-02-01T05:59:39;6.10;99.90
36002;DHT22;22070;50.922;5.430;2023-02-01T06:02:07;6.00;99.90
36002;DHT22;22070;50.922;5.430;2023-02-01T06:04:33;6.00;99.90
36002;DHT22;22070;50.922;5.430;2023-02-01T06:06:59;6.10;99.90
36002;DHT22;22070;50.922;5.430;2023-02-01T06:09:25;6.00;99.90
36002;DHT22;22070;50.922;5.430;2023-02-01T06:11:50;6.10;99.90
36002;DHT22;22070;50.922;5.430;2023-02-01T06:14:16;6.00;99.90
36002;DHT22;22070;50.922;5.430;2023-02-01T06:16:42;6.00;99.90
36002;DHT22;22070;50.922;5.430;2023-02-01T06:19:07;6.00;99.90
36002;DHT22;22070;50.922;5.430;2023-02-01T06:21:35;6.00;99.90
36002;DHT22;22070;50.922;5.430;2023-02-01T06:24:01;6.00;99.90
36002;DHT22;22070;50.922;5.430;2023-02-01T06:26:27;5.90;99.90
36002;DHT22;22070;50.922;5.430;2023-02-01T06:28:54;5.90;99.90
36002;DHT22;22070;50.922;5.430;2023-02-01T06:31:20;5.80;99.90
36002;DHT22;22070;50.922;5.430;2023-02-01T06:33:46;5.80;99.90
36002;DHT22;22070;50.922;5.430;2023-02-01T06:36:15;5.80;99.90
36002;DHT22;22070;50.922;5.430;2023-02-01T06:38:41;5.80;99.90
36002;DHT22;22070;50.922;5.430;2023-02-01T06:41:07;5.90;99.90
36002;DHT22;22070;50.922;5.430;2023-02-01T06:43:34;5.90;99.90
36002;DHT22;22070;50.922;5.430;2023-02-01T06:46:05;5.80;99.90
36002;DHT22;22070;50.922;5.430;2023-02-01T06:48:32;5.70;99.90
36002;DHT22;22070;50.922;5.430;2023-02-01T06:50:58;5.70;99.90
36002;DHT22;22070;50.922;5.430;2023-02-01T06:53:24;5.70;99.90
36002;DHT22;22070;50.922;5.430;2023-02-01T06:56:00;5.70;99.90
36002;DHT22;22070;50.922;5.430;2023-02-01T06:58:30;5.70;99.90
36002;DHT22;22070;50.922;5.430;2023-02-01T07:00:56;5.70;99.90
36002;DHT22;22070;50.922;5.430;2023-02-01T07:03:22;5.60;99.90
36002;DHT22;22070;50.922;5.430;2023-02-01T07:05:48;5.60;99.90
36002;DHT22;22070;50.922;5.430;2023-02-01T07:08:13;5.60;99.90
36002;DHT22;22070;50.922;5.430;2023-02-01T07:10:39;5.60;99.90
36002;DHT22;22070;50.922;5.430;2023-02-01T07:13:05;5.60;99.90
36002;DHT22;22070;50.922;5.430;2023-02-01T07:15:30;5.60;99.90
36002;DHT22;22070;50.922;5.430;2023-02-01T07:17:56;5.60;99.90
36002;DHT22;22070;50.922;5.430;2023-02-01T07:20:22;5.50;99.90
36002;DHT22;22070;50.922;5.430;2023-02-01T07:22:48;5.50;99.90
36002;DHT22;22070;50.922;5.430;2023-02-01T07:25:13;5.50;99.90
36002;DHT22;22070;50.922;5.430;2023-02-01T07:27:39;5.40;99.90
36002;DHT22;22070;50.922;5.430;2023-02-01T07:30:06;5.50;99.90
36002;DHT22;22070;50.922;5.430;2023-02-01T07:32:31;5.40;99.90
36002;DHT22;22070;50.922;5.430;2023-02-01T07:34:57;5.50;99.90
36002;DHT22;22070;50.922;5.430;2023-02-01T07:37:23;5.50;99.90
36002;DHT22;22070;50.922;5.430;2023-02-01T07:39:50;5.40;99.90
36002;DHT22;22070;50.922;5.430;2023-02-01T07:42:16;5.50;99.90
36002;DHT22;22070;50.922;5.430;2023-02-01T07:44:42;5.40;99.90
36002;DHT22;22070;50.922;5.430;2023-02-01T07:47:07;5.50;99.90
36002;DHT22;22070;50.922;5.430;2023-02-01T07:49:33;5.50;99.90
36002;DHT22;22070;50.922;5.430;2023-02-01T07:51:59;5.50;99.90
36002;DHT22;22070;50.922;5.430;2023-02-01T07:54:24;5.50;99.90
36002;DHT22;22070;50.922;5.430;2023-02-01T07:56:50;5.50;99.90
36002;DHT22;22070;50.922;5.430;2023-02-01T07:59:15;5.50;99.90
36002;DHT22;22070;50.922;5.430;2023-02-01T08:01:41;5.50;99.90
36002;DHT22;22070;50.922;5.430;2023-02-01T08:04:10;5.60;99.90
36002;DHT22;22070;50.922;5.430;2023-02-01T08:06:36;5.50;99.90
36002;DHT22;22070;50.922;5.430;2023-02-01T08:09:03;5.60;99.90
36002;DHT22;22070;50.922;5.430;2023-02-01T08:11:29;5.60;99.90
36002;DHT22;22070;50.922;5.430;2023-02-01T08:13:55;5.60;99.90
36002;DHT22;22070;50.922;5.430;2023-02-01T08:16:23;5.50;99.90
36002;DHT22;22070;50.922;5.430;2023-02-01T08:18:49;5.50;99.90
36002;DHT22;22070;50.922;5.430;2023-02-01T08:21:19;5.60;99.90
36002;DHT22;22070;50.922;5.430;2023-02-01T08:23:45;5.60;99.90
36002;DHT22;22070;50.922;5.430;2023-02-01T08:26:17;5.70;99.90
36002;DHT22;22070;50.922;5.430;2023-02-01T08:28:46;5.70;99.90
36002;DHT22;22070;50.922;5.430;2023-02-01T08:31:15;5.70;99.90
36002;DHT22;22070;50.922;5.430;2023-02-01T08:33:41;5.70;99.90
36002;DHT22;22070;50.922;5.430;2023-02-01T08:36:08;5.70;99.90
36002;DHT22;22070;50.922;5.430;2023-02-01T08:38:35;5.80;99.90
36002;DHT22;22070;50.922;5.430;2023-02-01T08:41:08;5.90;99.90
36002;DHT22;22070;50.922;5.430;2023-02-01T08:43:35;6.00;99.90
36002;DHT22;22070;50.922;5.430;2023-02-01T08:46:03;6.00;99.90
36002;DHT22;22070;50.922;5.430;2023-02-01T08:48:29;6.20;99.90
36002;DHT22;22070;50.922;5.430;2023-02-01T08:50:55;6.20;99.90
36002;DHT22;22070;50.922;5.430;2023-02-01T08:53:20;6.10;99.90
36002;DHT22;22070;50.922;5.430;2023-02-01T08:55:46;6.20;99.90
36002;DHT22;22070;50.922;5.430;2023-02-01T08:58:13;6.20;99.90
36002;DHT22;22070;50.922;5.430;2023-02-01T09:00:39;6.20;99.90
36002;DHT22;22070;50.922;5.430;2023-02-01T09:03:05;6.20;99.90
36002;DHT22;22070;50.922;5.430;2023-02-01T09:05:31;6.20;99.90
36002;DHT22;22070;50.922;5.430;2023-02-01T09:07:57;6.20;99.90
36002;DHT22;22070;50.922;5.430;2023-02-01T09:10:22;6.20;99.90
36002;DHT22;22070;50.922;5.430;2023-02-01T09:12:48;6.30;99.90
36002;DHT22;22070;50.922;5.430;2023-02-01T09:15:14;6.30;99.90
36002;DHT22;22070;50.922;5.430;2023-02-01T09:17:39;6.30;99.90
36002;DHT22;22070;50.922;5.430;2023-02-01T09:20:08;6.30;99.90
36002;DHT22;22070;50.922;5.430;2023-02-01T09:22:34;6.40;99.90
36002;DHT22;22070;50.922;5.430;2023-02-01T09:25:00;6.40;99.90
36002;DHT22;22070;50.922;5.430;2023-02-01T09:27:25;6.40;99.90
36002;DHT22;22070;50.922;5.430;2023-02-01T09:29:51;6.50;99.90
36002;DHT22;22070;50.922;5.430;2023-02-01T09:32:22;6.50;99.90
36002;DHT22;22070;50.922;5.430;2023-02-01T09:34:48;6.50;99.90
36002;DHT22;22070;50.922;5.430;2023-02-01T09:37:14;6.50;99.90
36002;DHT22;22070;50.922;5.430;2023-02-01T09:39:40;6.60;99.90
36002;DHT22;22070;50.922;5.430;2023-02-01T09:45:32;6.50;99.90
36002;DHT22;22070;50.922;5.430;2023-02-01T09:48:19;6.50;99.90
36002;DHT22;22070;50.922;5.430;2023-02-01T09:50:53;6.60;99.90
36002;DHT22;22070;50.922;5.430;2023-02-01T09:53:38;6.60;99.90
36002;DHT22;22070;50.922;5.430;2023-02-01T09:56:11;6.70;99.90
36002;DHT22;22070;50.922;5.430;2023-02-01T09:58:42;6.80;99.90
36002;DHT22;22070;50.922;5.430;2023-02-01T10:01:29;6.70;99.90
36002;DHT22;22070;50.922;5.430;2023-02-01T10:04:14;6.90;99.90
36002;DHT22;22070;50.922;5.430;2023-02-01T10:15:30;7.20;99.90
36002;DHT22;22070;50.922;5.430;2023-02-01T10:20:36;7.20;99.90
36002;DHT22;22070;50.922;5.430;2023-02-01T10:25:56;7.30;99.90
36002;DHT22;22070;50.922;5.430;2023-02-01T10:28:25;7.40;99.90
36002;DHT22;22070;50.922;5.430;2023-02-01T10:30:54;7.50;99.90
36002;DHT22;22070;50.922;5.430;2023-02-01T10:33:34;7.50;99.90
36002;DHT22;22070;50.922;5.430;2023-02-01T10:36:08;7.50;99.90
36002;DHT22;22070;50.922;5.430;2023-02-01T10:38:36;7.60;99.90
36002;DHT22;22070;50.922;5.430;2023-02-01T10:41:08;7.60;99.90
36002;DHT22;22070;50.922;5.430;2023-02-01T10:43:36;7.60;99.90
36002;DHT22;22070;50.922;5.430;2023-02-01T10:46:03;7.80;99.90
36002;DHT22;22070;50.922;5.430;2023-02-01T10:48:29;7.90;99.90
36002;DHT22;22070;50.922;5.430;2023-02-01T10:50:59;8.00;99.90
36002;DHT22;22070;50.922;5.430;2023-02-01T10:53:36;8.00;99.90
36002;DHT22;22070;50.922;5.430;2023-02-01T10:56:12;8.00;99.90
36002;DHT22;22070;50.922;5.430;2023-02-01T10:58:46;8.10;99.90
36002;DHT22;22070;50.922;5.430;2023-02-01T11:01:27;8.20;99.90
36002;DHT22;22070;50.922;5.430;2023-02-01T11:03:59;8.20;99.90
36002;DHT22;22070;50.922;5.430;2023-02-01T11:06:27;8.10;99.90
36002;DHT22;22070;50.922;5.430;2023-02-01T11:09:00;8.20;99.90
36002;DHT22;22070;50.922;5.430;2023-02-01T11:11:26;8.20;99.90
36002;DHT22;22070;50.922;5.430;2023-02-01T11:13:55;8.30;99.90
36002;DHT22;22070;50.922;5.430;2023-02-01T11:16:21;8.30;99.90
36002;DHT22;22070;50.922;5.430;2023-02-01T11:18:54;8.40;99.90
36002;DHT22;22070;50.922;5.430;2023-02-01T11:21:22;8.50;99.90
36002;DHT22;22070;50.922;5.430;2023-02-01T11:23:48;8.60;99.90
36002;DHT22;22070;50.922;5.430;2023-02-01T11:26:25;8.70;99.90
36002;DHT22;22070;50.922;5.430;2023-02-01T11:29:18;8.80;99.90
36002;DHT22;22070;50.922;5.430;2023-02-01T11:31:48;8.90;99.90
36002;DHT22;22070;50.922;5.430;2023-02-01T11:34:21;8.90;99.90
36002;DHT22;22070;50.922;5.430;2023-02-01T11:36:49;9.00;99.90
36002;DHT22;22070;50.922;5.430;2023-02-01T11:44:38;9.40;99.90
36002;DHT22;22070;50.922;5.430;2023-02-01T11:49:59;9.30;99.90
36002;DHT22;22070;50.922;5.430;2023-02-01T12:25:25;9.10;99.90
36002;DHT22;22070;50.922;5.430;2023-02-01T12:39:40;9.20;99.90
36002;DHT22;22070;50.922;5.430;2023-02-01T12:42:29;9.20;99.90
36002;DHT22;22070;50.922;5.430;2023-02-01T12:45:02;9.20;99.90
36002;DHT22;22070;50.922;5.430;2023-02-01T12:47:49;9.20;99.90
36002;DHT22;22070;50.922;5.430;2023-02-01T12:50:28;9.10;99.90
36002;DHT22;22070;50.922;5.430;2023-02-01T12:53:11;9.10;99.90
36002;DHT22;22070;50.922;5.430;2023-02-01T12:55:48;9.00;99.90
36002;DHT22;22070;50.922;5.430;2023-02-01T12:58:53;9.00;99.90
36002;DHT22;22070;50.922;5.430;2023-02-01T13:06:59;9.10;99.90
36002;DHT22;22070;50.922;5.430;2023-02-01T13:09:37;9.10;99.90
36002;DHT22;22070;50.922;5.430;2023-02-01T13:12:12;9.10;99.90
36002;DHT22;22070;50.922;5.430;2023-02-01T13:14:50;9.10;99.90
36002;DHT22;22070;50.922;5.430;2023-02-01T13:17:19;9.00;99.90
36002;DHT22;22070;50.922;5.430;2023-02-01T13:20:05;9.00;99.90
36002;DHT22;22070;50.922;5.430;2023-02-01T13:22:38;8.90;99.90
36002;DHT22;22070;50.922;5.430;2023-02-01T13:25:31;9.00;99.90
36002;DHT22;22070;50.922;5.430;2023-02-01T13:28:05;9.00;99.90
36002;DHT22;22070;50.922;5.430;2023-02-01T13:31:27;9.10;99.90
36002;DHT22;22070;50.922;5.430;2023-02-01T13:37:08;9.10;99.90
36002;DHT22;22070;50.922;5.430;2023-02-01T13:41:57;9.10;99.90
36002;DHT22;22070;50.922;5.430;2023-02-01T13:44:32;9.10;99.90
36002;DHT22;22070;50.922;5.430;2023-02-01T13:47:02;9.10;99.90
36002;DHT22;22070;50.922;5.430;2023-02-01T13:49:31;9.20;99.90
36002;DHT22;22070;50.922;5.430;2023-02-01T13:52:01;9.20;99.90
36002;DHT22;22070;50.922;5.430;2023-02-01T13:54:39;9.20;99.90
36002;DHT22;22070;50.922;5.430;2023-02-01T13:57:31;9.40;99.90
36002;DHT22;22070;50.922;5.430;2023-02-01T14:00:23;9.30;99.90
36002;DHT22;22070;50.922;5.430;2023-02-01T14:03:16;9.30;99.90
36002;DHT22;22070;50.922;5.430;2023-02-01T14:08:37;9.30;99.90
36002;DHT22;22070;50.922;5.430;2023-02-01T14:11:03;9.30;99.90
36002;DHT22;22070;50.922;5.430;2023-02-01T14:13:37;9.30;99.90
36002;DHT22;22070;50.922;5.430;2023-02-01T14:21:17;9.40;99.90
36002;DHT22;22070;50.922;5.430;2023-02-01T14:23:45;9.40;99.90
36002;DHT22;22070;50.922;5.430;2023-02-01T14:31:39;9.40;99.90
36002;DHT22;22070;50.922;5.430;2023-02-01T14:40:19;9.50;99.90
36002;DHT22;22070;50.922;5.430;2023-02-01T14:42:47;9.60;99.90
36002;DHT22;22070;50.922;5.430;2023-02-01T14:58:02;9.60;99.90
36002;DHT22;22070;50.922;5.430;2023-02-01T15:00:31;9.60;99.90
36002;DHT22;22070;50.922;5.430;2023-02-01T15:03:24;9.70;99.90
36002;DHT22;22070;50.922;5.430;2023-02-01T15:05:58;9.70;99.90
36002;DHT22;22070;50.922;5.430;2023-02-01T15:08:30;9.80;99.90
36002;DHT22;22070;50.922;5.430;2023-02-01T15:10:57;9.60;99.90
36002;DHT22;22070;50.922;5.430;2023-02-01T15:13:25;9.60;99.90
36002;DHT22;22070;50.922;5.430;2023-02-01T15:18:29;9.60;99.90
36002;DHT22;22070;50.922;5.430;2023-02-01T15:21:00;9.60;99.90
36002;DHT22;22070;50.922;5.430;2023-02-01T15:23:26;9.60;99.90
36002;DHT22;22070;50.922;5.430;2023-02-01T15:25:53;9.60;99.90
36002;DHT22;22070;50.922;5.430;2023-02-01T15:28:19;9.60;99.90
36002;DHT22;22070;50.922;5.430;2023-02-01T15:33:18;9.50;99.90
36002;DHT22;22070;50.922;5.430;2023-02-01T15:38:36;9.60;99.90
36002;DHT22;22070;50.922;5.430;2023-02-01T15:41:17;9.60;99.90
36002;DHT22;22070;50.922;5.430;2023-02-01T15:43:47;9.50;99.90
36002;DHT22;22070;50.922;5.430;2023-02-01T15:46:21;9.50;99.90
36002;DHT22;22070;50.922;5.430;2023-02-01T15:48:53;9.50;99.90
36002;DHT22;22070;50.922;5.430;2023-02-01T15:51:21;9.50;99.90
36002;DHT22;22070;50.922;5.430;2023-02-01T15:54:13;9.50;99.90
36002;DHT22;22070;50.922;5.430;2023-02-01T15:56:49;9.40;99.90
36002;DHT22;22070;50.922;5.430;2023-02-01T15:59:20;9.40;99.90
36002;DHT22;22070;50.922;5.430;2023-02-01T16:01:47;9.40;99.90
36002;DHT22;22070;50.922;5.430;2023-02-01T16:04:22;9.40;99.90
36002;DHT22;22070;50.922;5.430;2023-02-01T16:06:51;9.40;99.90
36002;DHT22;22070;50.922;5.430;2023-02-01T16:09:20;9.40;99.90
36002;DHT22;22070;50.922;5.430;2023-02-01T16:11:57;9.30;99.90
36002;DHT22;22070;50.922;5.430;2023-02-01T16:14:23;9.10;99.90
36002;DHT22;22070;50.922;5.430;2023-02-01T16:16:50;9.10;99.90
36002;DHT22;22070;50.922;5.430;2023-02-01T16:19:16;9.10;99.90
36002;DHT22;22070;50.922;5.430;2023-02-01T16:21:41;9.10;99.90
36002;DHT22;22070;50.922;5.430;2023-02-01T16:24:07;9.10;99.90
36002;DHT22;22070;50.922;5.430;2023-02-01T16:26:34;9.10;99.90
36002;DHT22;22070;50.922;5.430;2023-02-01T16:28:59;9.10;99.90
36002;DHT22;22070;50.922;5.430;2023-02-01T16:31:30;9.00;99.90
36002;DHT22;22070;50.922;5.430;2023-02-01T16:33:57;9.00;99.90
36002;DHT22;22070;50.922;5.430;2023-02-01T16:36:24;9.00;99.90
36002;DHT22;22070;50.922;5.430;2023-02-01T16:38:50;9.00;99.90
36002;DHT22;22070;50.922;5.430;2023-02-01T16:41:20;9.00;99.90
36002;DHT22;22070;50.922;5.430;2023-02-01T16:43:49;9.00;99.90
36002;DHT22;22070;50.922;5.430;2023-02-01T16:46:18;9.00;99.90
36002;DHT22;22070;50.922;5.430;2023-02-01T16:48:51;9.00;99.90
36002;DHT22;22070;50.922;5.430;2023-02-01T16:51:17;9.00;99.90
36002;DHT22;22070;50.922;5.430;2023-02-01T16:53:44;9.00;99.90
36002;DHT22;22070;50.922;5.430;2023-02-01T16:56:20;9.10;99.90
36002;DHT22;22070;50.922;5.430;2023-02-01T16:58:46;9.00;99.90
36002;DHT22;22070;50.922;5.430;2023-02-01T17:01:14;9.00;99.90
36002;DHT22;22070;50.922;5.430;2023-02-01T17:03:41;9.00;99.90
36002;DHT22;22070;50.922;5.430;2023-02-01T17:06:10;9.00;99.90
36002;DHT22;22070;50.922;5.430;2023-02-01T17:08:41;9.00;99.90
36002;DHT22;22070;50.922;5.430;2023-02-01T17:11:07;8.90;99.90
36002;DHT22;22070;50.922;5.430;2023-02-01T17:13:34;8.90;99.90
36002;DHT22;22070;50.922;5.430;2023-02-01T17:16:09;9.00;99.90
36002;DHT22;22070;50.922;5.430;2023-02-01T17:18:37;9.00;99.90
36002;DHT22;22070;50.922;5.430;2023-02-01T17:21:04;8.90;99.90
36002;DHT22;22070;50.922;5.430;2023-02-01T17:23:30;8.90;99.90
36002;DHT22;22070;50.922;5.430;2023-02-01T17:25:56;8.80;99.90
36002;DHT22;22070;50.922;5.430;2023-02-01T17:28:22;8.80;99.90
36002;DHT22;22070;50.922;5.430;2023-02-01T17:30:48;8.90;99.90
36002;DHT22;22070;50.922;5.430;2023-02-01T17:35:45;8.90;99.90
36002;DHT22;22070;50.922;5.430;2023-02-01T17:38:13;8.80;99.90
36002;DHT22;22070;50.922;5.430;2023-02-01T17:40:39;8.90;99.90
36002;DHT22;22070;50.922;5.430;2023-02-01T17:43:04;8.80;99.90
36002;DHT22;22070;50.922;5.430;2023-02-01T17:45:48;8.80;99.90
36002;DHT22;22070;50.922;5.430;2023-02-01T17:48:18;8.80;99.90
36002;DHT22;22070;50.922;5.430;2023-02-01T17:50:45;8.80;99.90
36002;DHT22;22070;50.922;5.430;2023-02-01T17:53:12;8.80;99.90
36002;DHT22;22070;50.922;5.430;2023-02-01T17:55:43;8.70;99.90
36002;DHT22;22070;50.922;5.430;2023-02-01T17:58:13;8.80;99.90
36002;DHT22;22070;50.922;5.430;2023-02-01T18:00:40;8.70;99.90
36002;DHT22;22070;50.922;5.430;2023-02-01T18:03:06;8.80;99.90
36002;DHT22;22070;50.922;5.430;2023-02-01T18:05:38;8.70;99.90
36002;DHT22;22070;50.922;5.430;2023-02-01T18:08:05;8.70;99.90
36002;DHT22;22070;50.922;5.430;2023-02-01T18:10:31;8.70;99.90
36002;DHT22;22070;50.922;5.430;2023-02-01T18:12:56;8.70;99.90
36002;DHT22;22070;50.922;5.430;2023-02-01T18:15:24;8.70;99.90
36002;DHT22;22070;50.922;5.430;2023-02-01T18:17:50;8.70;99.90
36002;DHT22;22070;50.922;5.430;2023-02-01T18:20:18;8.70;99.90
36002;DHT22;22070;50.922;5.430;2023-02-01T18:22:45;8.80;99.90
36002;DHT22;22070;50.922;5.430;2023-02-01T18:27:43;8.70;99.90
36002;DHT22;22070;50.922;5.430;2023-02-01T18:30:09;8.70;99.90
36002;DHT22;22070;50.922;5.430;2023-02-01T18:32:35;8.70;99.90
36002;DHT22;22070;50.922;5.430;2023-02-01T18:35:01;8.70;99.90
36002;DHT22;22070;50.922;5.430;2023-02-01T18:37:27;8.70;99.90